sensor_id;sensor_type;location;lat;lon;timestamp;pressure;altitude;pressure_sealevel;temperature;humidity
20111;BME280;10216;42.658;23.248;2022-09-03T00:02:18;93714.28;;;16.52;100.00
20111;BME280;10216;42.658;23.248;2022-09-03T00:10:42;93720.44;;;16.44;100.00
20111;BME280;10216;42.658;23.248;2022-09-03T00:13:13;93716.84;;;16.45;100.00
20111;BME280;10216;42.658;23.248;2022-09-03T00:15:40;93715.88;;;16.39;100.00
20111;BME280;10216;42.658;23.248;2022-09-03T00:18:12;93717.66;;;16.32;100.00
20111;BME280;10216;42.658;23.248;2022-09-03T00:23:23;93712.88;;;16.42;100.00
20111;BME280;10216;42.658;23.248;2022-09-03T00:28:46;93696.53;;;16.55;100.00
20111;BME280;10216;42.658;23.248;2022-09-03T00:31:17;93699.94;;;16.56;100.00
20111;BME280;10216;42.658;23.248;2022-09-03T00:33:45;93701.31;;;16.52;100.00
20111;BME280;10216;42.658;23.248;2022-09-03T00:36:28;93704.50;;;16.54;100.00
20111;BME280;10216;42.658;23.248;2022-09-03T00:38:57;93695.53;;;16.56;100.00
20111;BME280;10216;42.658;23.248;2022-09-03T00:46:30;93701.31;;;16.58;100.00
20111;BME280;10216;42.658;23.248;2022-09-03T00:54:31;93707.91;;;16.61;100.00
20111;BME280;10216;42.658;23.248;2022-09-03T00:57:34;93719.44;;;16.58;100.00
20111;BME280;10216;42.658;23.248;2022-09-03T01:10:47;93713.28;;;16.46;100.00
20111;BME280;10216;42.658;23.248;2022-09-03T01:16:31;93702.91;;;16.46;100.00
20111;BME280;10216;42.658;23.248;2022-09-03T01:30:05;93736.41;;;16.28;100.00
20111;BME280;10216;42.658;23.248;2022-09-03T01:32:47;93730.19;;;16.29;100.00
20111;BME280;10216;42.658;23.248;2022-09-03T01:35:27;93739.38;;;16.31;100.00
20111;BME280;10216;42.658;23.248;2022-09-03T01:45:53;93746.72;;;16.15;100.00
20111;BME280;10216;42.658;23.248;2022-09-03T01:57:07;93731.59;;;16.12;99.23
20111;BME280;10216;42.658;23.248;2022-09-03T01:59:55;93729.56;;;16.14;100.00
20111;BME280;10216;42.658;23.248;2022-09-03T02:02:26;93729.56;;;16.14;100.00
20111;BME280;10216;42.658;23.248;2022-09-03T02:07:26;93729.56;;;16.07;100.00
20111;BME280;10216;42.658;23.248;2022-09-03T02:09:59;93732.38;;;16.12;100.00
20111;BME280;10216;42.658;23.248;2022-09-03T02:12:26;93733.38;;;16.11;100.00
20111;BME280;10216;42.658;23.248;2022-09-03T02:15:00;93737.94;;;16.09;100.00
20111;BME280;10216;42.658;23.248;2022-09-03T02:17:30;93733.75;;;16.08;100.00
20111;BME280;10216;42.658;23.248;2022-09-03T02:19:56;93730.00;;;16.11;100.00
20111;BME280;10216;42.658;23.248;2022-09-03T02:22:22;93728.00;;;16.13;100.00
20111;BME280;10216;42.658;23.248;2022-09-03T02:24:48;93719.44;;;16.12;100.00
20111;BME280;10216;42.658;23.248;2022-09-03T02:27:13;93729.81;;;16.19;100.00
20111;BME280;10216;42.658;23.248;2022-09-03T02:29:39;93740.38;;;16.24;100.00
20111;BME280;10216;42.658;23.248;2022-09-03T02:32:05;93743.94;;;16.23;100.00
20111;BME280;10216;42.658;23.248;2022-09-03T02:34:30;93750.72;;;16.24;100.00
20111;BME280;10216;42.658;23.248;2022-09-03T02:36:56;93744.34;;;16.20;100.00
20111;BME280;10216;42.658;23.248;2022-09-03T02:39:21;93739.38;;;16.18;100.00
20111;BME280;10216;42.658;23.248;2022-09-03T02:41:52;93746.34;;;16.24;100.00
20111;BME280;10216;42.658;23.248;2022-09-03T02:44:30;93736.59;;;16.26;100.00
20111;BME280;10216;42.658;23.248;2022-09-03T02:47:07;93744.53;;;16.18;100.00
20111;BME280;10216;42.658;23.248;2022-09-03T02:49:33;93752.31;;;16.18;100.00
20111;BME280;10216;42.658;23.248;2022-09-03T02:52:04;93746.94;;;16.20;100.00
20111;BME280;10216;42.658;23.248;2022-09-03T02:54:30;93753.50;;;16.22;100.00
20111;BME280;10216;42.658;23.248;2022-09-03T02:56:58;93751.72;;;16.23;100.00
20111;BME280;10216;42.658;23.248;2022-09-03T02:59:24;93751.91;;;16.21;100.00
20111;BME280;10216;42.658;23.248;2022-09-03T03:01:52;93748.13;;;16.24;100.00
20111;BME280;10216;42.658;23.248;2022-09-03T03:04:18;93743.38;;;16.27;100.00
20111;BME280;10216;42.658;23.248;2022-09-03T03:06:43;93742.16;;;16.30;100.00
20111;BME280;10216;42.658;23.248;2022-09-03T03:09:09;93742.97;;;16.30;100.00
20111;BME280;10216;42.658;23.248;2022-09-03T03:11:34;93743.56;;;16.32;100.00
20111;BME280;10216;42.658;23.248;2022-09-03T03:14:01;93749.34;;;16.28;100.00
20111;BME280;10216;42.658;23.248;2022-09-03T03:16:27;93737.16;;;16.28;100.00
20111;BME280;10216;42.658;23.248;2022-09-03T03:18:55;93734.81;;;16.27;100.00
20111;BME280;10216;42.658;23.248;2022-09-03T03:21:21;93727.22;;;16.25;100.00
20111;BME280;10216;42.658;23.248;2022-09-03T03:23:46;93739.56;;;16.23;100.00
20111;BME280;10216;42.658;23.248;2022-09-03T03:26:14;93728.00;;;16.19;100.00
20111;BME280;10216;42.658;23.248;2022-09-03T03:28:42;93745.97;;;16.21;100.00
20111;BME280;10216;42.658;23.248;2022-09-03T03:31:20;93740.16;;;16.25;100.00
20111;BME280;10216;42.658;23.248;2022-09-03T03:33:51;93739.97;;;16.27;100.00
20111;BME280;10216;42.658;23.248;2022-09-03T03:36:17;93735.38;;;16.29;100.00
20111;BME280;10216;42.658;23.248;2022-09-03T03:38:43;93737.78;;;16.24;100.00
20111;BME280;10216;42.658;23.248;2022-09-03T03:41:15;93735.00;;;16.25;100.00
20111;BME280;10216;42.658;23.248;2022-09-03T03:43:42;93737.78;;;16.24;100.00
20111;BME280;10216;42.658;23.248;2022-09-03T03:46:08;93741.59;;;16.28;100.00
20111;BME280;10216;42.658;23.248;2022-09-03T03:48:34;93754.13;;;16.24;100.00
20111;BME280;10216;42.658;23.248;2022-09-03T03:51:01;93738.56;;;16.24;100.00
20111;BME280;10216;42.658;23.248;2022-09-03T03:53:28;93749.53;;;16.20;100.00
20111;BME280;10216;42.658;23.248;2022-09-03T03:55:58;93754.31;;;16.23;100.00
20111;BME280;10216;42.658;23.248;2022-09-03T03:58:25;93753.31;;;16.24;100.00
20111;BME280;10216;42.658;23.248;2022-09-03T04:00:51;93756.09;;;16.22;100.00
20111;BME280;10216;42.658;23.248;2022-09-03T04:03:17;93759.50;;;16.23;100.00
20111;BME280;10216;42.658;23.248;2022-09-03T04:05:43;93752.94;;;16.20;100.00
20111;BME280;10216;42.658;23.248;2022-09-03T04:08:08;93749.91;;;16.04;100.00
20111;BME280;10216;42.658;23.248;2022-09-03T04:10:35;93749.91;;;16.10;99.81
20111;BME280;10216;42.658;23.248;2022-09-03T04:13:01;93751.72;;;16.16;100.00
20111;BME280;10216;42.658;23.248;2022-09-03T04:15:26;93745.97;;;16.21;100.00
20111;BME280;10216;42.658;23.248;2022-09-03T04:17:54;93747.94;;;16.19;100.00
20111;BME280;10216;42.658;23.248;2022-09-03T04:20:20;93743.94;;;16.23;100.00
20111;BME280;10216;42.658;23.248;2022-09-03T04:22:46;93755.91;;;16.24;100.00
20111;BME280;10216;42.658;23.248;2022-09-03T04:25:11;93751.16;;;16.27;100.00
20111;BME280;10216;42.658;23.248;2022-09-03T04:27:36;93753.50;;;16.22;100.00
20111;BME280;10216;42.658;23.248;2022-09-03T04:30:02;93747.13;;;16.18;100.00
20111;BME280;10216;42.658;23.248;2022-09-03T04:32:28;93765.47;;;16.23;100.00
20111;BME280;10216;42.658;23.248;2022-09-03T04:35:11;93768.84;;;16.24;100.00
20111;BME280;10216;42.658;23.248;2022-09-03T04:37:37;93773.44;;;16.28;100.00
20111;BME280;10216;42.658;23.248;2022-09-03T04:40:03;93771.47;;;16.30;100.00
20111;BME280;10216;42.658;23.248;2022-09-03T04:42:29;93776.25;;;16.27;100.00
20111;BME280;10216;42.658;23.248;2022-09-03T04:44:54;93785.22;;;16.31;100.00
20111;BME280;10216;42.658;23.248;2022-09-03T04:47:19;93790.59;;;16.36;100.00
20111;BME280;10216;42.658;23.248;2022-09-03T04:49:45;93798.16;;;16.31;100.00
20111;BME280;10216;42.658;23.248;2022-09-03T04:52:11;93795.56;;;16.31;100.00
20111;BME280;10216;42.658;23.248;2022-09-03T04:54:36;93800.75;;;16.31;100.00
20111;BME280;10216;42.658;23.248;2022-09-03T04:57:02;93802.16;;;16.33;100.00
20111;BME280;10216;42.658;23.248;2022-09-03T04:59:27;93809.16;;;16.33;100.00
20111;BME280;10216;42.658;23.248;2022-09-03T05:01:52;93811.94;;;16.38;100.00
20111;BME280;10216;42.658;23.248;2022-09-03T05:04:18;93814.16;;;16.41;100.00
20111;BME280;10216;42.658;23.248;2022-09-03T05:06:43;93812.13;;;16.36;100.00
20111;BME280;10216;42.658;23.248;2022-09-03T05:09:09;93814.94;;;16.35;100.00
20111;BME280;10216;42.658;23.248;2022-09-03T05:11:35;93818.72;;;16.39;100.00
20111;BME280;10216;42.658;23.248;2022-09-03T05:14:00;93813.72;;;16.44;98.85
20111;BME280;10216;42.658;23.248;2022-09-03T05:16:27;93816.94;;;16.53;99.11
20111;BME280;10216;42.658;23.248;2022-09-03T05:18:55;93815.59;;;16.63;98.55
20111;BME280;10216;42.658;23.248;2022-09-03T05:21:21;93816.34;;;16.57;97.50
20111;BME280;10216;42.658;23.248;2022-09-03T05:23:48;93811.16;;;16.57;97.52
20111;BME280;10216;42.658;23.248;2022-09-03T05:26:24;93805.78;;;16.46;97.17
20111;BME280;10216;42.658;23.248;2022-09-03T05:28:58;93813.16;;;16.49;96.87
20111;BME280;10216;42.658;23.248;2022-09-03T05:31:26;93806.56;;;16.33;95.68
20111;BME280;10216;42.658;23.248;2022-09-03T05:33:57;93812.13;;;16.30;95.77
20111;BME280;10216;42.658;23.248;2022-09-03T05:36:24;93814.94;;;16.35;96.59
20111;BME280;10216;42.658;23.248;2022-09-03T05:38:51;93827.09;;;16.34;95.28
20111;BME280;10216;42.658;23.248;2022-09-03T05:41:21;93821.91;;;16.41;95.40
20111;BME280;10216;42.658;23.248;2022-09-03T05:43:48;93816.13;;;16.46;93.59
20111;BME280;10216;42.658;23.248;2022-09-03T05:46:19;93819.53;;;16.59;94.33
20111;BME280;10216;42.658;23.248;2022-09-03T05:48:45;93828.78;;;16.82;94.72
20111;BME280;10216;42.658;23.248;2022-09-03T05:51:12;93821.78;;;16.89;92.98
20111;BME280;10216;42.658;23.248;2022-09-03T05:53:41;93823.38;;;16.90;92.81
20111;BME280;10216;42.658;23.248;2022-09-03T05:56:08;93825.78;;;16.85;92.11
20111;BME280;10216;42.658;23.248;2022-09-03T05:58:39;93827.38;;;16.99;92.46
20111;BME280;10216;42.658;23.248;2022-09-03T06:03:47;93833.91;;;17.47;89.27
20111;BME280;10216;42.658;23.248;2022-09-03T06:06:17;93827.72;;;17.62;88.35
20111;BME280;10216;42.658;23.248;2022-09-03T06:08:42;93831.06;;;17.82;86.79
20111;BME280;10216;42.658;23.248;2022-09-03T06:11:09;93832.22;;;17.99;85.99
20111;BME280;10216;42.658;23.248;2022-09-03T06:13:35;93834.31;;;18.22;85.46
20111;BME280;10216;42.658;23.248;2022-09-03T06:16:03;93843.03;;;18.34;84.30
20111;BME280;10216;42.658;23.248;2022-09-03T06:18:30;93836.88;;;18.28;82.54
20111;BME280;10216;42.658;23.248;2022-09-03T06:21:00;93837.28;;;18.25;82.36
20111;BME280;10216;42.658;23.248;2022-09-03T06:23:27;93838.22;;;18.38;82.26
20111;BME280;10216;42.658;23.248;2022-09-03T06:26:06;93844.25;;;18.31;81.13
20111;BME280;10216;42.658;23.248;2022-09-03T06:28:33;93842.25;;;18.33;81.84
20111;BME280;10216;42.658;23.248;2022-09-03T06:31:01;93844.16;;;18.51;82.18
20111;BME280;10216;42.658;23.248;2022-09-03T06:33:27;93851.28;;;18.69;81.09
20111;BME280;10216;42.658;23.248;2022-09-03T06:35:54;93850.53;;;18.62;80.77
20111;BME280;10216;42.658;23.248;2022-09-03T06:38:25;93860.28;;;18.66;80.44
20111;BME280;10216;42.658;23.248;2022-09-03T06:40:55;93848.69;;;18.69;80.37
20111;BME280;10216;42.658;23.248;2022-09-03T06:43:22;93851.91;;;18.64;80.99
20111;BME280;10216;42.658;23.248;2022-09-03T06:45:55;93846.97;;;18.50;81.38
20111;BME280;10216;42.658;23.248;2022-09-03T06:48:21;93850.22;;;18.39;81.80
20111;BME280;10216;42.658;23.248;2022-09-03T06:50:57;93858.84;;;18.32;82.07
20111;BME280;10216;42.658;23.248;2022-09-03T06:53:24;93855.91;;;18.16;82.72
20111;BME280;10216;42.658;23.248;2022-09-03T06:55:59;93860.28;;;18.28;82.93
20111;BME280;10216;42.658;23.248;2022-09-03T06:58:31;93860.22;;;18.42;83.99
20111;BME280;10216;42.658;23.248;2022-09-03T07:01:04;93860.59;;;18.39;82.35
20111;BME280;10216;42.658;23.248;2022-09-03T07:03:33;93867.06;;;18.29;82.17
20111;BME280;10216;42.658;23.248;2022-09-03T07:06:04;93868.47;;;18.25;82.48
20111;BME280;10216;42.658;23.248;2022-09-03T07:08:31;93874.06;;;18.29;82.39
20111;BME280;10216;42.658;23.248;2022-09-03T07:11:05;93878.16;;;18.50;81.58
20111;BME280;10216;42.658;23.248;2022-09-03T07:13:34;93873.94;;;18.62;80.39
20111;BME280;10216;42.658;23.248;2022-09-03T07:16:08;93871.97;;;18.57;80.00
20111;BME280;10216;42.658;23.248;2022-09-03T07:18:34;93875.94;;;18.53;81.78
20111;BME280;10216;42.658;23.248;2022-09-03T07:21:01;93874.94;;;18.54;82.30
20111;BME280;10216;42.658;23.248;2022-09-03T07:23:28;93885.16;;;18.56;82.04
20111;BME280;10216;42.658;23.248;2022-09-03T07:25:58;93874.31;;;18.59;81.09
20111;BME280;10216;42.658;23.248;2022-09-03T07:28:25;93888.56;;;18.56;79.69
20111;BME280;10216;42.658;23.248;2022-09-03T07:30:51;93884.69;;;18.72;79.58
20111;BME280;10216;42.658;23.248;2022-09-03T07:33:17;93885.47;;;19.04;78.95
20111;BME280;10216;42.658;23.248;2022-09-03T07:35:44;93888.25;;;19.34;78.00
20111;BME280;10216;42.658;23.248;2022-09-03T07:38:10;93897.84;;;19.33;76.96
20111;BME280;10216;42.658;23.248;2022-09-03T07:40:36;93890.81;;;19.65;75.64
20111;BME280;10216;42.658;23.248;2022-09-03T07:43:03;93896.69;;;19.97;74.05
20111;BME280;10216;42.658;23.248;2022-09-03T07:45:30;93897.81;;;20.08;73.78
20111;BME280;10216;42.658;23.248;2022-09-03T07:47:57;93894.31;;;20.14;73.72
20111;BME280;10216;42.658;23.248;2022-09-03T07:50:23;93897.22;;;20.24;73.62
20111;BME280;10216;42.658;23.248;2022-09-03T07:52:48;93897.34;;;20.47;72.61
20111;BME280;10216;42.658;23.248;2022-09-03T07:55:14;93900.59;;;20.61;71.48
20111;BME280;10216;42.658;23.248;2022-09-03T07:57:39;93895.38;;;20.91;70.45
20111;BME280;10216;42.658;23.248;2022-09-03T08:00:06;93905.69;;;20.86;69.19
20111;BME280;10216;42.658;23.248;2022-09-03T08:02:34;93903.16;;;21.09;68.97
20111;BME280;10216;42.658;23.248;2022-09-03T08:04:59;93896.25;;;21.15;68.78
20111;BME280;10216;42.658;23.248;2022-09-03T08:07:25;93905.97;;;20.96;69.98
20111;BME280;10216;42.658;23.248;2022-09-03T08:09:52;93905.81;;;20.91;71.46
20111;BME280;10216;42.658;23.248;2022-09-03T08:12:18;93901.63;;;21.20;70.54
20111;BME280;10216;42.658;23.248;2022-09-03T08:14:43;93903.16;;;21.51;70.16
20111;BME280;10216;42.658;23.248;2022-09-03T08:17:09;93901.50;;;21.26;68.40
20111;BME280;10216;42.658;23.248;2022-09-03T08:19:36;93897.03;;;21.15;68.73
20111;BME280;10216;42.658;23.248;2022-09-03T08:22:02;93898.56;;;21.23;68.62
20111;BME280;10216;42.658;23.248;2022-09-03T08:24:27;93901.50;;;21.26;69.01
20111;BME280;10216;42.658;23.248;2022-09-03T08:26:53;93899.63;;;21.68;68.33
20111;BME280;10216;42.658;23.248;2022-09-03T08:29:19;93897.59;;;22.05;66.39
20111;BME280;10216;42.658;23.248;2022-09-03T08:31:45;93893.81;;;22.25;66.72
20111;BME280;10216;42.658;23.248;2022-09-03T08:34:10;93888.59;;;22.93;64.99
20111;BME280;10216;42.658;23.248;2022-09-03T08:36:38;93894.25;;;23.02;63.16
20111;BME280;10216;42.658;23.248;2022-09-03T08:39:06;93891.09;;;23.16;62.18
20111;BME280;10216;42.658;23.248;2022-09-03T08:46:56;93892.63;;;23.46;60.79
20111;BME280;10216;42.658;23.248;2022-09-03T08:49:35;93898.03;;;23.39;62.58
20111;BME280;10216;42.658;23.248;2022-09-03T08:52:07;93885.94;;;23.05;62.53
20111;BME280;10216;42.658;23.248;2022-09-03T08:54:38;93892.94;;;23.16;62.39
20111;BME280;10216;42.658;23.248;2022-09-03T08:57:04;93890.53;;;22.98;62.19
20111;BME280;10216;42.658;23.248;2022-09-03T08:59:31;93894.06;;;22.91;62.54
20111;BME280;10216;42.658;23.248;2022-09-03T09:10:47;93900.00;;;22.58;64.08
20111;BME280;10216;42.658;23.248;2022-09-03T09:16:07;93896.75;;;22.40;64.31
20111;BME280;10216;42.658;23.248;2022-09-03T09:19:19;93901.91;;;22.23;67.13
20111;BME280;10216;42.658;23.248;2022-09-03T09:22:23;93904.28;;;22.13;66.65
20111;BME280;10216;42.658;23.248;2022-09-03T09:24:47;93917.50;;;22.18;66.62
20111;BME280;10216;42.658;23.248;2022-09-03T09:27:15;93905.06;;;22.37;65.07
20111;BME280;10216;42.658;23.248;2022-09-03T09:29:47;93907.97;;;22.52;66.33
20111;BME280;10216;42.658;23.248;2022-09-03T09:32:15;93911.47;;;22.57;64.48
20111;BME280;10216;42.658;23.248;2022-09-03T09:34:41;93902.25;;;22.67;63.45
20111;BME280;10216;42.658;23.248;2022-09-03T09:37:11;93909.41;;;23.00;64.69
20111;BME280;10216;42.658;23.248;2022-09-03T09:39:38;93914.22;;;22.91;64.25
20111;BME280;10216;42.658;23.248;2022-09-03T09:42:07;93908.59;;;22.71;65.31
20111;BME280;10216;42.658;23.248;2022-09-03T09:44:36;93914.66;;;23.00;63.49
20111;BME280;10216;42.658;23.248;2022-09-03T09:47:04;93915.94;;;24.14;61.49
20111;BME280;10216;42.658;23.248;2022-09-03T09:49:50;93924.16;;;25.00;57.07
20111;BME280;10216;42.658;23.248;2022-09-03T09:52:16;93909.16;;;25.27;56.82
20111;BME280;10216;42.658;23.248;2022-09-03T09:54:43;93920.56;;;25.11;56.11
20111;BME280;10216;42.658;23.248;2022-09-03T09:57:20;93926.41;;;24.91;57.64
20111;BME280;10216;42.658;23.248;2022-09-03T09:59:46;93919.22;;;25.35;56.83
20111;BME280;10216;42.658;23.248;2022-09-03T10:02:22;93920.44;;;25.86;55.35
20111;BME280;10216;42.658;23.248;2022-09-03T10:04:55;93915.63;;;26.62;52.13
20111;BME280;10216;42.658;23.248;2022-09-03T10:07:29;93916.81;;;26.92;52.02
20111;BME280;10216;42.658;23.248;2022-09-03T10:10:14;93916.16;;;26.64;51.73
20111;BME280;10216;42.658;23.248;2022-09-03T10:12:44;93915.97;;;25.87;52.81
20111;BME280;10216;42.658;23.248;2022-09-03T10:15:22;93907.59;;;25.58;56.17
20111;BME280;10216;42.658;23.248;2022-09-03T10:20:32;93910.38;;;30.79;42.92
20111;BME280;10216;42.658;23.248;2022-09-03T10:28:26;93912.13;;;29.49;45.42
20111;BME280;10216;42.658;23.248;2022-09-03T10:33:39;93917.53;;;32.83;39.92
20111;BME280;10216;42.658;23.248;2022-09-03T10:36:35;93917.31;;;33.20;38.76
20111;BME280;10216;42.658;23.248;2022-09-03T10:41:45;93905.91;;;30.03;42.39
20111;BME280;10216;42.658;23.248;2022-09-03T10:44:30;93905.56;;;28.92;44.80
20111;BME280;10216;42.658;23.248;2022-09-03T10:47:26;93909.25;;;27.46;47.94
20111;BME280;10216;42.658;23.248;2022-09-03T10:55:48;93901.13;;;24.03;57.64
20111;BME280;10216;42.658;23.248;2022-09-03T10:58:34;93902.78;;;24.09;59.20
20111;BME280;10216;42.658;23.248;2022-09-03T11:03:55;93904.00;;;29.74;45.09
20111;BME280;10216;42.658;23.248;2022-09-03T11:06:28;93898.66;;;30.37;42.37
20111;BME280;10216;42.658;23.248;2022-09-03T11:09:00;93907.16;;;31.62;41.87
20111;BME280;10216;42.658;23.248;2022-09-03T11:11:36;93922.19;;;33.77;37.61
20111;BME280;10216;42.658;23.248;2022-09-03T11:14:08;93919.50;;;34.61;36.44
20111;BME280;10216;42.658;23.248;2022-09-03T11:16:43;93915.22;;;34.42;37.26
20111;BME280;10216;42.658;23.248;2022-09-03T11:19:12;93923.44;;;33.21;37.59
20111;BME280;10216;42.658;23.248;2022-09-03T11:21:41;93923.31;;;33.84;38.35
20111;BME280;10216;42.658;23.248;2022-09-03T11:26:38;93924.28;;;37.29;34.14
20111;BME280;10216;42.658;23.248;2022-09-03T11:36:36;93923.75;;;39.00;29.80
20111;BME280;10216;42.658;23.248;2022-09-03T11:39:22;93917.78;;;38.13;30.23
20111;BME280;10216;42.658;23.248;2022-09-03T11:42:09;93924.94;;;39.92;29.31
20111;BME280;10216;42.658;23.248;2022-09-03T11:44:45;93916.22;;;37.59;31.26
20111;BME280;10216;42.658;23.248;2022-09-03T11:49:47;93918.50;;;39.04;30.31
20111;BME280;10216;42.658;23.248;2022-09-03T11:52:25;93923.25;;;40.15;29.95
20111;BME280;10216;42.658;23.248;2022-09-03T11:54:51;93925.31;;;40.65;27.95
20111;BME280;10216;42.658;23.248;2022-09-03T11:57:30;93923.84;;;38.10;30.34
20111;BME280;10216;42.658;23.248;2022-09-03T12:00:09;93912.25;;;34.92;33.12
20111;BME280;10216;42.658;23.248;2022-09-03T12:02:44;93906.28;;;34.95;34.94
20111;BME280;10216;42.658;23.248;2022-09-03T12:05:24;93909.00;;;37.71;32.40
20111;BME280;10216;42.658;23.248;2022-09-03T12:10:52;93916.34;;;42.17;27.11
20111;BME280;10216;42.658;23.248;2022-09-03T12:18:55;93905.53;;;43.57;25.76
20111;BME280;10216;42.658;23.248;2022-09-03T12:21:24;93910.88;;;43.01;26.84
20111;BME280;10216;42.658;23.248;2022-09-03T12:23:51;93905.25;;;43.39;25.92
20111;BME280;10216;42.658;23.248;2022-09-03T12:26:23;93907.31;;;43.19;25.46
20111;BME280;10216;42.658;23.248;2022-09-03T12:28:55;93906.72;;;43.33;25.89
20111;BME280;10216;42.658;23.248;2022-09-03T12:34:11;93895.97;;;38.72;30.53
20111;BME280;10216;42.658;23.248;2022-09-03T12:36:42;93890.88;;;40.11;28.58
20111;BME280;10216;42.658;23.248;2022-09-03T12:39:18;93902.03;;;41.93;27.79
20111;BME280;10216;42.658;23.248;2022-09-03T12:44:38;93902.13;;;43.64;26.15
20111;BME280;10216;42.658;23.248;2022-09-03T12:47:18;93895.31;;;43.47;26.24
20111;BME280;10216;42.658;23.248;2022-09-03T12:49:46;93903.03;;;44.42;25.69
20111;BME280;10216;42.658;23.248;2022-09-03T12:54:54;93887.97;;;40.32;27.61
20111;BME280;10216;42.658;23.248;2022-09-03T12:57:26;93872.16;;;36.30;32.08
20111;BME280;10216;42.658;23.248;2022-09-03T12:59:55;93862.94;;;36.48;34.44
20111;BME280;10216;42.658;23.248;2022-09-03T13:02:31;93868.28;;;37.36;33.13
20111;BME280;10216;42.658;23.248;2022-09-03T13:05:00;93870.06;;;39.80;29.60
20111;BME280;10216;42.658;23.248;2022-09-03T13:07:32;93871.41;;;42.47;26.21
20111;BME280;10216;42.658;23.248;2022-09-03T13:10:06;93875.44;;;41.38;26.73
20111;BME280;10216;42.658;23.248;2022-09-03T13:12:45;93876.56;;;42.56;26.77
20111;BME280;10216;42.658;23.248;2022-09-03T13:15:18;93874.53;;;42.30;25.59
20111;BME280;10216;42.658;23.248;2022-09-03T13:17:54;93869.16;;;43.02;24.84
20111;BME280;10216;42.658;23.248;2022-09-03T13:20:36;93870.78;;;44.29;24.94
20111;BME280;10216;42.658;23.248;2022-09-03T13:23:27;93873.34;;;44.56;23.77
20111;BME280;10216;42.658;23.248;2022-09-03T13:28:52;93872.16;;;45.66;23.01
20111;BME280;10216;42.658;23.248;2022-09-03T13:31:31;93874.16;;;45.80;24.18
20111;BME280;10216;42.658;23.248;2022-09-03T13:34:24;93870.00;;;43.58;24.14
20111;BME280;10216;42.658;23.248;2022-09-03T13:39:54;93860.59;;;39.59;27.76
20111;BME280;10216;42.658;23.248;2022-09-03T13:44:55;93848.81;;;37.27;31.54
20111;BME280;10216;42.658;23.248;2022-09-03T13:49:53;93835.47;;;34.98;33.37
20111;BME280;10216;42.658;23.248;2022-09-03T13:55:36;93820.09;;;31.91;38.15
20111;BME280;10216;42.658;23.248;2022-09-03T14:00:52;93824.28;;;30.52;39.54
20111;BME280;10216;42.658;23.248;2022-09-03T14:03:31;93833.38;;;30.22;41.28
20111;BME280;10216;42.658;23.248;2022-09-03T14:11:46;93822.63;;;28.04;43.97
20111;BME280;10216;42.658;23.248;2022-09-03T14:14:22;93823.00;;;27.36;45.85
20111;BME280;10216;42.658;23.248;2022-09-03T14:17:05;93824.22;;;26.73;46.76
20111;BME280;10216;42.658;23.248;2022-09-03T14:20:03;93830.56;;;26.72;48.23
20111;BME280;10216;42.658;23.248;2022-09-03T14:22:58;93826.59;;;26.74;49.10
20111;BME280;10216;42.658;23.248;2022-09-03T14:25:27;93831.94;;;26.90;49.38
20111;BME280;10216;42.658;23.248;2022-09-03T14:27:54;93831.44;;;26.93;49.88
20111;BME280;10216;42.658;23.248;2022-09-03T14:37:03;93826.34;;;26.09;49.90
20111;BME280;10216;42.658;23.248;2022-09-03T14:39:13;93828.66;;;25.95;48.63
20111;BME280;10216;42.658;23.248;2022-09-03T15:00:20;93835.13;;;25.08;51.93
20111;BME280;10216;42.658;23.248;2022-09-03T15:05:31;93838.00;;;24.80;53.15
20111;BME280;10216;42.658;23.248;2022-09-03T15:11:02;93843.56;;;23.74;56.20
20111;BME280;10216;42.658;23.248;2022-09-03T15:13:32;93847.84;;;23.47;58.69
20111;BME280;10216;42.658;23.248;2022-09-03T15:29:24;93859.50;;;22.49;61.27
20111;BME280;10216;42.658;23.248;2022-09-03T15:37:52;93850.88;;;22.09;60.76
20111;BME280;10216;42.658;23.248;2022-09-03T15:43:08;93852.03;;;22.01;61.60
20111;BME280;10216;42.658;23.248;2022-09-03T15:51:02;93861.53;;;21.84;62.86
20111;BME280;10216;42.658;23.248;2022-09-03T15:56:20;93856.22;;;21.44;63.47
20111;BME280;10216;42.658;23.248;2022-09-03T16:01:25;93864.03;;;21.21;65.61
20111;BME280;10216;42.658;23.248;2022-09-03T16:07:04;93868.63;;;20.95;65.10
20111;BME280;10216;42.658;23.248;2022-09-03T16:09:37;93865.06;;;20.90;65.50
20111;BME280;10216;42.658;23.248;2022-09-03T16:12:18;93874.59;;;20.84;65.63
20111;BME280;10216;42.658;23.248;2022-09-03T16:14:57;93878.91;;;20.79;66.61
20111;BME280;10216;42.658;23.248;2022-09-03T16:25:43;93896.63;;;20.58;67.63
20111;BME280;10216;42.658;23.248;2022-09-03T16:28:27;93886.03;;;20.53;69.50
20111;BME280;10216;42.658;23.248;2022-09-03T16:41:30;93903.53;;;20.35;69.15
20111;BME280;10216;42.658;23.248;2022-09-03T16:47:06;93902.88;;;20.21;70.42
20111;BME280;10216;42.658;23.248;2022-09-03T17:01:05;93909.94;;;20.32;70.45
20111;BME280;10216;42.658;23.248;2022-09-03T17:12:51;93933.06;;;20.28;68.44
20111;BME280;10216;42.658;23.248;2022-09-03T17:15:46;93930.81;;;20.32;68.18
20111;BME280;10216;42.658;23.248;2022-09-03T17:18:20;93939.66;;;20.31;67.04
20111;BME280;10216;42.658;23.248;2022-09-03T17:31:25;93937.69;;;20.26;68.82
20111;BME280;10216;42.658;23.248;2022-09-03T17:34:27;93951.53;;;20.27;70.13
20111;BME280;10216;42.658;23.248;2022-09-03T17:42:58;93975.44;;;20.24;70.69
20111;BME280;10216;42.658;23.248;2022-09-03T17:50:30;93981.44;;;20.24;71.70
20111;BME280;10216;42.658;23.248;2022-09-03T17:53:20;93983.47;;;20.22;72.30
20111;BME280;10216;42.658;23.248;2022-09-03T17:55:55;93986.72;;;20.18;73.66
20111;BME280;10216;42.658;23.248;2022-09-03T17:58:46;93993.19;;;20.15;73.61